createdAt,value
2019-02-26T00:00:46.971Z,8.77
2019-02-26T00:03:12.961Z,9.47
2019-02-26T00:05:40.904Z,9.33
2019-02-26T00:08:08.812Z,9.70
2019-02-26T00:10:38.968Z,8.37
2019-02-26T00:13:06.489Z,8.10
2019-02-26T00:15:35.764Z,8.80
2019-02-26T00:18:07.445Z,7.67
2019-02-26T00:20:36.401Z,7.70
2019-02-26T00:23:04.378Z,10.23
2019-02-26T00:25:32.463Z,9.47
2019-02-26T00:28:00.523Z,8.63
2019-02-26T00:30:28.512Z,8.50
2019-02-26T00:32:58.287Z,10.20
2019-02-26T00:35:27.626Z,9.73
2019-02-26T00:37:56.004Z,10.57
2019-02-26T00:40:23.948Z,9.70
2019-02-26T00:42:54.388Z,9.20
2019-02-26T00:45:24.667Z,9.77
2019-02-26T00:47:51.297Z,10.17
2019-02-26T00:50:19.207Z,11.60
2019-02-26T00:52:47.091Z,10.10
2019-02-26T00:55:15.159Z,9.07
2019-02-26T00:57:43.261Z,10.70
2019-02-26T01:00:13.127Z,9.00
2019-02-26T01:02:41.159Z,10.43
2019-02-26T01:05:10.808Z,9.70
2019-02-26T01:07:39.116Z,10.70
2019-02-26T01:10:07.280Z,10.60
2019-02-26T01:12:37.474Z,10.30
2019-02-26T01:15:07.219Z,10.30
2019-02-26T01:17:35.741Z,10.30
2019-02-26T01:20:05.842Z,10.53
2019-02-26T01:22:35.363Z,10.20
2019-02-26T01:25:03.425Z,10.83
2019-02-26T01:27:31.451Z,10.50
2019-02-26T01:30:00.576Z,10.27
2019-02-26T01:32:29.036Z,10.10
2019-02-26T01:34:56.985Z,11.90
2019-02-26T01:37:27.277Z,10.70
2019-02-26T01:39:54.670Z,10.10
2019-02-26T01:42:24.860Z,11.60
2019-02-26T01:44:52.299Z,11.30
2019-02-26T01:47:21.898Z,11.93
2019-02-26T01:49:51.116Z,10.97
2019-02-26T01:52:19.120Z,11.80
2019-02-26T01:54:47.404Z,12.40
2019-02-26T01:57:17.310Z,9.57
2019-02-26T01:59:44.968Z,10.53
2019-02-26T02:02:17.360Z,10.63
2019-02-26T02:04:43.480Z,9.90
2019-02-26T02:07:11.729Z,10.27
2019-02-26T02:09:39.626Z,11.90
2019-02-26T02:12:08.887Z,10.43
2019-02-26T02:14:37.310Z,8.80
2019-02-26T02:17:06.037Z,8.97
2019-02-26T02:19:34.884Z,11.83
2019-02-26T02:22:02.875Z,10.00
2019-02-26T02:24:30.934Z,9.23
2019-02-26T02:27:00.332Z,9.70
2019-02-26T02:29:28.653Z,7.60
2019-02-26T02:31:59.550Z,7.10
2019-02-26T02:34:27.023Z,6.63
2019-02-26T02:36:55.937Z,7.20
2019-02-26T02:39:26.332Z,7.40
2019-02-26T02:41:54.952Z,9.63
2019-02-26T02:44:25.424Z,8.50
2019-02-26T02:46:52.831Z,8.70
2019-02-26T02:49:20.866Z,9.17
2019-02-26T02:51:48.827Z,9.00
2019-02-26T02:54:18.581Z,7.70
2019-02-26T02:56:46.385Z,9.57
2019-02-26T02:59:16.453Z,10.90
2019-02-26T03:01:45.780Z,8.73
2019-02-26T03:04:17.280Z,9.07
2019-02-26T03:06:43.297Z,10.13
2019-02-26T03:09:17.061Z,9.70
2019-02-26T03:11:46.418Z,10.47
2019-02-26T03:14:16.165Z,10.47
2019-02-26T03:16:45.574Z,9.17
2019-02-26T03:19:14.594Z,9.20
2019-02-26T03:21:45.386Z,11.90
2019-02-26T03:24:12.600Z,10.50
2019-02-26T03:26:40.652Z,11.60
2019-02-26T03:29:08.618Z,10.93
2019-02-26T03:31:40.602Z,11.10
2019-02-26T03:34:10.391Z,10.50
2019-02-26T03:36:38.292Z,11.20
2019-02-26T03:39:06.462Z,10.40
2019-02-26T03:41:34.401Z,9.23
2019-02-26T03:44:03.323Z,10.77
2019-02-26T03:46:32.146Z,11.43
2019-02-26T03:49:02.360Z,10.50
2019-02-26T03:51:29.751Z,10.13
2019-02-26T03:53:57.744Z,9.50
2019-02-26T03:56:25.702Z,9.10
2019-02-26T03:58:56.980Z,9.53
2019-02-26T04:01:23.709Z,10.97
2019-02-26T04:03:51.761Z,11.00
2019-02-26T04:06:19.758Z,10.40
2019-02-26T04:08:50.022Z,9.90
2019-02-26T04:11:19.455Z,8.97
2019-02-26T04:13:49.499Z,7.70
2019-02-26T04:16:16.646Z,8.00
2019-02-26T04:18:44.692Z,8.27
2019-02-26T04:21:14.956Z,8.10
2019-02-26T04:23:44.544Z,6.50
2019-02-26T04:26:20.929Z,6.63
2019-02-26T04:28:50.223Z,6.60
2019-02-26T04:31:35.842Z,7.13
2019-02-26T04:34:09.228Z,6.80
2019-02-26T04:36:56.342Z,8.07
2019-02-26T04:39:36.859Z,9.63
2019-02-26T04:42:23.912Z,6.40
2019-02-26T04:45:10.979Z,6.23
2019-02-26T04:47:40.638Z,6.77
2019-02-26T04:50:09.190Z,7.50
2019-02-26T04:52:40.047Z,6.50
2019-02-26T04:55:07.230Z,6.97
2019-02-26T04:57:39.448Z,6.90
2019-02-26T05:00:07.233Z,7.10
2019-02-26T05:02:34.763Z,8.57
2019-02-26T05:05:02.721Z,8.40
2019-02-26T05:07:32.838Z,7.23
2019-02-26T05:10:02.289Z,7.37
2019-02-26T05:12:31.638Z,7.53
2019-02-26T05:14:59.828Z,7.00
2019-02-26T05:17:30.250Z,6.07
2019-02-26T05:19:57.530Z,6.33
2019-02-26T05:22:27.673Z,6.43
2019-02-26T05:24:55.192Z,8.43
2019-02-26T05:27:24.907Z,8.50
2019-02-26T05:29:54.701Z,7.77
2019-02-26T05:32:25.155Z,8.17
2019-02-26T05:34:52.684Z,8.30
2019-02-26T05:37:20.679Z,8.40
2019-02-26T05:39:51.552Z,7.80
2019-02-26T05:42:18.754Z,7.50
2019-02-26T05:44:46.715Z,7.70
2019-02-26T05:47:16.702Z,6.50
2019-02-26T05:49:45.803Z,6.53
2019-02-26T05:52:13.895Z,6.50
2019-02-26T05:54:41.881Z,6.07
2019-02-26T05:57:25.483Z,6.27
2019-02-26T05:59:41.823Z,6.80
2019-02-26T06:02:10.856Z,6.83
2019-02-26T06:04:41.024Z,6.40
2019-02-26T06:07:09.171Z,6.50
2019-02-26T06:09:37.078Z,7.40
2019-02-26T06:12:05.084Z,6.80
2019-02-26T06:14:33.774Z,6.97
2019-02-26T06:17:02.827Z,6.53
2019-02-26T06:19:49.407Z,7.50
2019-02-26T06:22:20.568Z,7.00
2019-02-26T06:24:47.227Z,6.50
2019-02-26T06:27:18.322Z,6.80
2019-02-26T06:29:45.673Z,6.53
2019-02-26T06:32:14.489Z,6.40
2019-02-26T06:34:42.468Z,8.30
2019-02-26T06:37:17.437Z,7.07
2019-02-26T06:39:45.381Z,7.07
2019-02-26T06:42:14.491Z,7.90
2019-02-26T06:44:43.776Z,7.50
2019-02-26T06:47:12.299Z,8.10
2019-02-26T06:49:41.427Z,8.00
2019-02-26T06:52:10.749Z,7.67
2019-02-26T06:54:39.532Z,8.93
2019-02-26T06:57:07.810Z,7.60
2019-02-26T06:59:36.851Z,7.23
2019-02-26T07:02:04.965Z,8.10
2019-02-26T07:04:32.949Z,7.10
2019-02-26T07:07:01.947Z,7.80
2019-02-26T07:09:32.309Z,13.07
2019-02-26T07:12:00.228Z,8.57
2019-02-26T07:14:29.861Z,7.23
2019-02-26T07:16:59.086Z,8.67
2019-02-26T07:19:28.906Z,8.10
2019-02-26T07:21:57.235Z,8.40
2019-02-26T07:24:27.048Z,8.70
2019-02-26T07:26:55.178Z,9.43
2019-02-26T07:29:23.166Z,8.80
2019-02-26T07:31:51.881Z,8.10
2019-02-26T07:34:22.703Z,7.87
2019-02-26T07:36:52.491Z,7.37
2019-02-26T07:39:22.199Z,7.37
2019-02-26T07:41:51.552Z,7.40
2019-02-26T07:44:21.254Z,7.03
2019-02-26T07:46:49.185Z,6.80
2019-02-26T07:49:17.224Z,7.63
2019-02-26T07:51:45.239Z,6.57
2019-02-26T07:54:13.191Z,7.23
2019-02-26T07:56:41.172Z,7.03
2019-02-26T07:59:10.022Z,6.40
2019-02-26T08:01:39.902Z,6.20
2019-02-26T08:04:10.830Z,6.40
2019-02-26T08:06:38.490Z,6.87
2019-02-26T08:09:11.427Z,6.80
2019-02-26T08:11:40.741Z,6.57
2019-02-26T08:14:07.088Z,6.97
2019-02-26T08:16:35.050Z,7.30
2019-02-26T08:19:03.043Z,6.93
2019-02-26T08:21:30.991Z,6.87
2019-02-26T08:23:58.999Z,6.50
2019-02-26T08:26:29.066Z,6.57
2019-02-26T08:28:56.672Z,6.30
2019-02-26T08:31:25.648Z,6.50
2019-02-26T08:33:54.447Z,6.77
2019-02-26T08:36:22.401Z,6.50
2019-02-26T08:38:51.947Z,6.70
2019-02-26T08:41:20.080Z,6.93
2019-02-26T08:43:49.635Z,5.90
2019-02-26T08:46:18.911Z,6.60
2019-02-26T08:48:48.384Z,6.00
2019-02-26T08:51:18.839Z,7.30
2019-02-26T08:53:47.591Z,7.50
2019-02-26T08:56:15.891Z,6.83
2019-02-26T08:58:45.391Z,6.33
2019-02-26T09:01:13.454Z,6.67
2019-02-26T09:03:41.436Z,6.30
2019-02-26T09:06:13.293Z,5.97
2019-02-26T09:08:40.611Z,6.13
2019-02-26T09:11:10.864Z,6.87
2019-02-26T09:13:41.037Z,6.87
2019-02-26T09:16:08.569Z,7.07
2019-02-26T09:18:38.703Z,6.80
2019-02-26T09:21:07.133Z,6.40
2019-02-26T09:23:35.216Z,6.40
2019-02-26T09:26:05.266Z,6.30
2019-02-26T09:28:32.892Z,6.07
2019-02-26T09:31:01.884Z,6.93
2019-02-26T09:33:32.585Z,5.90
2019-02-26T09:36:00.191Z,6.00
2019-02-26T09:38:28.131Z,6.40
2019-02-26T09:40:57.079Z,6.40
2019-02-26T09:43:25.162Z,6.33
2019-02-26T09:45:53.172Z,6.27
2019-02-26T09:48:21.954Z,6.60
2019-02-26T09:50:50.112Z,5.90
2019-02-26T09:53:17.997Z,6.50
2019-02-26T09:55:46.019Z,6.40
2019-02-26T09:58:15.858Z,6.00
2019-02-26T10:00:45.597Z,8.27
2019-02-26T10:03:15.046Z,6.97
2019-02-26T10:05:43.108Z,6.80
2019-02-26T10:08:11.040Z,6.57
2019-02-26T10:10:39.766Z,6.13
2019-02-26T10:13:07.944Z,6.30
2019-02-26T10:15:39.320Z,6.90
2019-02-26T10:18:08.783Z,6.10
2019-02-26T10:20:35.101Z,6.70
2019-02-26T10:23:06.051Z,6.60
2019-02-26T10:25:34.967Z,8.80
2019-02-26T10:28:05.796Z,7.60
2019-02-26T10:30:33.980Z,7.23
2019-02-26T10:33:02.937Z,6.63
2019-02-26T10:35:36.155Z,6.63
2019-02-26T10:38:03.644Z,6.37
2019-02-26T10:40:35.267Z,5.90
2019-02-26T10:42:59.946Z,6.27
2019-02-26T10:45:27.892Z,6.70
2019-02-26T10:47:56.922Z,6.37
2019-02-26T10:50:31.050Z,6.50
2019-02-26T10:52:57.709Z,5.90
2019-02-26T10:55:31.278Z,6.70
2019-02-26T10:57:55.300Z,5.97
2019-02-26T11:00:25.925Z,6.23
2019-02-26T11:02:54.429Z,6.17
2019-02-26T11:05:26.285Z,6.17
2019-02-26T11:07:53.189Z,6.00
2019-02-26T11:10:23.206Z,5.77
2019-02-26T11:12:53.651Z,5.90
2019-02-26T11:15:22.051Z,5.77
2019-02-26T11:17:53.206Z,5.37
2019-02-26T11:20:21.867Z,5.70
2019-02-26T11:22:51.933Z,6.27
2019-02-26T11:25:22.423Z,6.00
2019-02-26T11:27:49.529Z,6.00
2019-02-26T11:30:20.558Z,5.90
2019-02-26T11:32:47.440Z,6.13
2019-02-26T11:35:17.610Z,6.13
2019-02-26T11:37:47.194Z,5.90
2019-02-26T11:40:16.832Z,5.63
2019-02-26T11:42:46.684Z,5.90
2019-02-26T11:45:17.484Z,5.70
2019-02-26T11:47:44.716Z,6.27
2019-02-26T11:50:13.424Z,6.07
2019-02-26T11:52:41.411Z,6.20
2019-02-26T11:55:11.290Z,5.70
2019-02-26T11:57:39.902Z,5.63
2019-02-26T12:00:13.947Z,6.00
2019-02-26T12:02:43.569Z,5.93
2019-02-26T12:05:11.693Z,6.20
2019-02-26T12:07:39.738Z,6.30
2019-02-26T12:10:11.679Z,5.97
2019-02-26T12:12:38.164Z,5.77
2019-02-26T12:15:09.131Z,6.23
2019-02-26T12:17:38.744Z,6.17
2019-02-26T12:20:07.917Z,6.33
2019-02-26T12:22:35.803Z,6.63
2019-02-26T12:25:05.749Z,6.53
2019-02-26T12:27:36.008Z,6.63
2019-02-26T12:30:03.021Z,8.50
2019-02-26T12:32:30.975Z,6.73
2019-02-26T12:34:58.924Z,6.70
2019-02-26T12:37:26.816Z,6.40
2019-02-26T12:39:57.421Z,6.37
2019-02-26T12:42:24.646Z,6.30
2019-02-26T12:44:52.547Z,6.50
2019-02-26T12:47:21.779Z,6.40
2019-02-26T12:49:50.141Z,6.20
2019-02-26T12:52:21.242Z,6.10
2019-02-26T12:54:47.749Z,6.30
2019-02-26T12:57:18.450Z,6.10
2019-02-26T12:59:45.523Z,6.40
2019-02-26T13:02:16.735Z,6.23
2019-02-26T13:04:44.526Z,7.40
2019-02-26T13:07:12.703Z,6.30
2019-02-26T13:09:46.895Z,6.20
2019-02-26T13:12:12.468Z,6.37
2019-02-26T13:14:40.231Z,6.10
2019-02-26T13:17:08.247Z,6.23
2019-02-26T13:19:37.153Z,6.20
2019-02-26T13:22:08.743Z,6.73
2019-02-26T13:24:35.114Z,6.70
2019-02-26T13:27:03.085Z,8.30
2019-02-26T13:29:31.405Z,6.67
2019-02-26T13:32:00.114Z,6.30
2019-02-26T13:34:28.453Z,7.67
2019-02-26T13:36:56.914Z,6.60
2019-02-26T13:39:29.854Z,7.23
2019-02-26T13:42:03.535Z,6.87
2019-02-26T13:44:24.698Z,6.70
2019-02-26T13:46:52.695Z,7.07
2019-02-26T13:49:20.681Z,6.50
2019-02-26T13:51:50.203Z,6.93
2019-02-26T13:54:18.115Z,6.83
2019-02-26T13:56:47.142Z,6.60
2019-02-26T13:59:15.104Z,7.13
2019-02-26T14:01:43.170Z,6.97
2019-02-26T14:04:11.247Z,7.30
2019-02-26T14:06:39.432Z,7.20
2019-02-26T14:09:07.804Z,6.30
2019-02-26T14:11:35.856Z,7.10
2019-02-26T14:14:04.092Z,7.13
2019-02-26T14:16:32.648Z,7.50
2019-02-26T14:19:00.909Z,7.33
2019-02-26T14:21:28.945Z,7.67
2019-02-26T14:23:56.914Z,6.60
2019-02-26T14:26:24.933Z,7.10
2019-02-26T14:28:52.974Z,7.50
2019-02-26T14:31:21.131Z,8.53
2019-02-26T14:33:49.096Z,7.10
2019-02-26T14:36:17.307Z,6.90
2019-02-26T14:38:45.350Z,7.00
2019-02-26T14:41:13.441Z,6.70
2019-02-26T14:43:42.144Z,7.40
2019-02-26T14:46:10.215Z,7.10
2019-02-26T14:48:38.309Z,6.90
2019-02-26T14:51:06.336Z,6.70
2019-02-26T14:53:34.704Z,6.80
2019-02-26T14:56:03.562Z,7.03
2019-02-26T14:58:31.559Z,6.00
2019-02-26T15:01:00.383Z,7.00
2019-02-26T15:03:28.529Z,6.77
2019-02-26T15:05:56.586Z,6.60
2019-02-26T15:08:26.891Z,6.50
2019-02-26T15:10:54.958Z,6.73
2019-02-26T15:13:24.957Z,6.10
2019-02-26T15:15:53.107Z,9.23
2019-02-26T15:18:21.445Z,6.57
2019-02-26T15:20:49.548Z,6.80
2019-02-26T15:23:17.582Z,7.33
2019-02-26T15:25:45.583Z,6.20
2019-02-26T15:28:13.458Z,6.47
2019-02-26T15:30:41.453Z,6.87
2019-02-26T15:33:11.411Z,6.70
2019-02-26T15:35:39.368Z,6.53
2019-02-26T15:38:07.424Z,7.07
2019-02-26T15:40:35.327Z,6.77
2019-02-26T15:43:03.326Z,6.80
2019-02-26T15:45:32.007Z,6.73
2019-02-26T15:48:03.707Z,6.80
2019-02-26T15:50:29.533Z,6.87
2019-02-26T15:52:57.599Z,6.77
2019-02-26T15:55:25.972Z,6.60
2019-02-26T15:57:55.120Z,7.67
2019-02-26T16:00:23.601Z,6.70
2019-02-26T16:02:51.707Z,6.93
2019-02-26T16:05:20.343Z,7.10
2019-02-26T16:07:48.329Z,7.00
2019-02-26T16:10:16.332Z,6.40
2019-02-26T16:12:44.417Z,6.40
2019-02-26T16:15:12.632Z,7.07
2019-02-26T16:17:40.582Z,6.67
2019-02-26T16:20:10.320Z,6.83
2019-02-26T16:22:38.420Z,6.97
2019-02-26T16:25:08.235Z,6.80
2019-02-26T16:27:37.798Z,7.30
2019-02-26T16:30:07.417Z,8.80
2019-02-26T16:32:37.367Z,7.00
2019-02-26T16:35:05.189Z,7.13
2019-02-26T16:37:33.552Z,6.97
2019-02-26T16:40:02.616Z,6.47
2019-02-26T16:42:30.561Z,7.67
2019-02-26T16:45:01.208Z,6.70
2019-02-26T16:47:28.835Z,6.50
2019-02-26T16:49:58.663Z,7.13
2019-02-26T16:52:27.757Z,6.70
2019-02-26T16:54:56.147Z,6.80
2019-02-26T16:57:25.730Z,6.83
2019-02-26T16:59:53.801Z,6.70
2019-02-26T17:02:21.809Z,6.53
2019-02-26T17:04:50.341Z,7.20
2019-02-26T17:07:18.307Z,7.00
2019-02-26T17:09:46.304Z,6.30
2019-02-26T17:12:14.272Z,7.07
2019-02-26T17:14:43.035Z,7.17
2019-02-26T17:17:11.075Z,6.67
2019-02-26T17:19:39.207Z,6.97
2019-02-26T17:22:07.236Z,6.97
2019-02-26T17:24:35.319Z,6.60
2019-02-26T17:27:03.511Z,7.40
2019-02-26T17:29:33.031Z,7.03
2019-02-26T17:32:04.017Z,6.70
2019-02-26T17:34:30.804Z,7.10
2019-02-26T17:36:59.033Z,7.00
2019-02-26T17:39:28.645Z,6.40
2019-02-26T17:41:56.740Z,6.60
2019-02-26T17:44:24.800Z,6.97
2019-02-26T17:46:52.791Z,6.90
2019-02-26T17:49:20.760Z,6.80
2019-02-26T17:51:48.739Z,6.40
2019-02-26T17:54:16.918Z,6.33
2019-02-26T17:56:44.970Z,6.30
2019-02-26T17:59:16.696Z,6.87
2019-02-26T18:01:42.943Z,7.13
2019-02-26T18:04:10.947Z,7.27
2019-02-26T18:06:38.871Z,7.03
2019-02-26T18:09:06.858Z,6.87
2019-02-26T18:11:36.534Z,7.70
2019-02-26T18:14:04.640Z,7.60
2019-02-26T18:16:34.381Z,7.60
2019-02-26T18:19:02.305Z,7.17
2019-02-26T18:21:30.302Z,7.23
2019-02-26T18:23:58.444Z,7.70
2019-02-26T18:26:26.432Z,7.33
2019-02-26T18:28:54.718Z,6.97
2019-02-26T18:31:26.528Z,7.03
2019-02-26T18:33:52.379Z,8.63
2019-02-26T18:36:20.557Z,6.70
2019-02-26T18:38:49.178Z,6.40
2019-02-26T18:41:17.420Z,6.60
2019-02-26T18:43:47.536Z,9.60
2019-02-26T18:46:15.100Z,7.07
2019-02-26T18:48:43.079Z,7.77
2019-02-26T18:51:11.084Z,6.40
2019-02-26T18:53:39.142Z,7.20
2019-02-26T18:56:07.218Z,6.87
2019-02-26T18:58:36.442Z,7.13
2019-02-26T19:01:04.375Z,7.57
2019-02-26T19:03:32.287Z,7.20
2019-02-26T19:06:00.216Z,6.53
2019-02-26T19:08:28.172Z,7.40
2019-02-26T19:10:56.201Z,7.17
2019-02-26T19:13:24.086Z,6.50
2019-02-26T19:15:52.064Z,7.20
2019-02-26T19:18:20.015Z,7.57
2019-02-26T19:20:49.073Z,6.80
2019-02-26T19:23:17.658Z,6.43
2019-02-26T19:25:45.696Z,6.50
2019-02-26T19:28:13.957Z,7.30
2019-02-26T19:30:41.935Z,6.70
2019-02-26T19:33:09.900Z,7.90
2019-02-26T19:35:40.361Z,6.70
2019-02-26T19:38:08.492Z,7.43
2019-02-26T19:40:38.995Z,6.80
2019-02-26T19:43:07.811Z,7.00
2019-02-26T19:45:35.792Z,6.70
2019-02-26T19:48:03.839Z,7.30
2019-02-26T19:50:32.009Z,7.30
2019-02-26T19:53:02.494Z,6.97
2019-02-26T19:55:31.179Z,6.70
2019-02-26T19:58:02.854Z,6.80
2019-02-26T20:00:28.855Z,7.70
2019-02-26T20:02:57.224Z,6.70
2019-02-26T20:05:25.445Z,7.20
2019-02-26T20:07:53.397Z,7.33
2019-02-26T20:10:21.311Z,7.67
2019-02-26T20:12:49.300Z,7.03
2019-02-26T20:15:17.270Z,6.53
2019-02-26T20:17:48.983Z,7.17
2019-02-26T20:20:16.759Z,7.10
2019-02-26T20:22:44.854Z,7.43
2019-02-26T20:25:13.424Z,7.70
2019-02-26T20:27:41.592Z,7.70
2019-02-26T20:30:12.410Z,7.57
2019-02-26T20:32:40.083Z,7.20
2019-02-26T20:35:11.617Z,8.23
2019-02-26T20:37:38.711Z,8.40
2019-02-26T20:40:07.743Z,8.27
2019-02-26T20:42:36.688Z,7.00
2019-02-26T20:45:04.962Z,7.33
2019-02-26T20:47:32.915Z,7.50
2019-02-26T20:50:01.614Z,6.80
2019-02-26T20:52:32.664Z,8.23
2019-02-26T20:54:59.704Z,7.70
2019-02-26T20:57:27.706Z,8.20
2019-02-26T20:59:55.743Z,7.20
2019-02-26T21:02:23.725Z,7.13
2019-02-26T21:04:51.613Z,7.23
2019-02-26T21:07:24.145Z,7.20
2019-02-26T21:09:49.478Z,8.87
2019-02-26T21:12:17.516Z,7.53
2019-02-26T21:14:45.700Z,7.30
2019-02-26T21:17:13.693Z,9.00
2019-02-26T21:19:41.825Z,11.17
2019-02-26T21:22:09.736Z,9.07
2019-02-26T21:24:40.426Z,7.50
2019-02-26T21:27:08.541Z,7.27
2019-02-26T21:29:38.658Z,7.80
2019-02-26T21:32:06.336Z,10.40
2019-02-26T21:34:35.693Z,8.37
2019-02-26T21:37:03.612Z,10.50
2019-02-26T21:39:31.643Z,10.03
2019-02-26T21:41:59.819Z,8.93
2019-02-26T21:44:27.944Z,9.90
2019-02-26T21:46:56.195Z,10.13
2019-02-26T21:49:24.752Z,8.67
2019-02-26T21:51:52.856Z,12.90
2019-02-26T21:54:24.521Z,10.40
2019-02-26T21:56:51.111Z,7.27
2019-02-26T21:59:19.104Z,8.80
2019-02-26T22:01:47.323Z,8.30
2019-02-26T22:04:15.366Z,7.50
2019-02-26T22:06:44.861Z,8.37
2019-02-26T22:09:13.049Z,6.80
2019-02-26T22:11:40.997Z,7.70
2019-02-26T22:14:09.079Z,7.10
2019-02-26T22:16:37.004Z,7.70
2019-02-26T22:19:07.185Z,7.80
2019-02-26T22:21:34.750Z,7.47
2019-02-26T22:24:04.622Z,7.93
2019-02-26T22:26:32.763Z,7.83
2019-02-26T22:29:00.834Z,7.97
2019-02-26T22:31:29.404Z,7.10
2019-02-26T22:33:57.536Z,8.67
2019-02-26T22:36:25.495Z,7.60
2019-02-26T22:38:53.464Z,7.60
2019-02-26T22:41:21.528Z,7.07
2019-02-26T22:43:49.483Z,7.30
2019-02-26T22:46:17.435Z,7.70
2019-02-26T22:48:46.919Z,7.53
2019-02-26T22:51:15.026Z,7.30
2019-02-26T22:53:42.982Z,7.30
2019-02-26T22:56:11.112Z,7.50
2019-02-26T22:58:39.125Z,8.13
2019-02-26T23:01:45.800Z,8.23
2019-02-26T23:04:13.812Z,6.73
2019-02-26T23:06:41.885Z,8.27
2019-02-26T23:09:11.761Z,8.10
2019-02-26T23:11:39.661Z,8.60
2019-02-26T23:14:08.348Z,7.40
2019-02-26T23:16:36.503Z,7.93
2019-02-26T23:19:04.945Z,7.67
2019-02-26T23:21:32.957Z,7.30
2019-02-26T23:24:00.960Z,8.07
2019-02-26T23:26:28.879Z,7.80
2019-02-26T23:28:56.860Z,7.40
2019-02-26T23:31:24.839Z,6.90
2019-02-26T23:33:52.828Z,6.80
2019-02-26T23:36:20.761Z,7.60
2019-02-26T23:38:48.736Z,7.43
2019-02-26T23:41:16.724Z,7.77
2019-02-26T23:43:45.370Z,8.40
2019-02-26T23:46:14.012Z,8.03
2019-02-26T23:48:41.962Z,7.63
2019-02-26T23:51:09.900Z,7.83
2019-02-26T23:53:38.400Z,7.20
2019-02-26T23:56:06.363Z,6.97
2019-02-26T23:58:34.361Z,7.93
